sensor_id;sensor_type;location;lat;lon;timestamp;P1;durP1;ratioP1;P2;durP2;ratioP2
53644;SDS011;39547;45.554;12.068;2023-03-23T00:03:14;32.33;;;20.57;;
53644;SDS011;39547;45.554;12.068;2023-03-23T00:09:16;41.47;;;25.75;;
53644;SDS011;39547;45.554;12.068;2023-03-23T00:15:18;40.30;;;25.55;;
53644;SDS011;39547;45.554;12.068;2023-03-23T00:21:19;41.22;;;26.05;;
53644;SDS011;39547;45.554;12.068;2023-03-23T00:27:26;39.15;;;24.27;;
53644;SDS011;39547;45.554;12.068;2023-03-23T00:33:28;40.70;;;26.23;;
53644;SDS011;39547;45.554;12.068;2023-03-23T00:39:34;35.92;;;22.67;;
53644;SDS011;39547;45.554;12.068;2023-03-23T00:45:37;42.10;;;26.17;;
53644;SDS011;39547;45.554;12.068;2023-03-23T00:51:39;46.78;;;29.08;;
53644;SDS011;39547;45.554;12.068;2023-03-23T00:57:41;43.63;;;27.17;;
53644;SDS011;39547;45.554;12.068;2023-03-23T01:03:43;40.20;;;25.52;;
53644;SDS011;39547;45.554;12.068;2023-03-23T01:09:45;43.30;;;26.88;;
53644;SDS011;39547;45.554;12.068;2023-03-23T01:15:47;41.90;;;25.42;;
53644;SDS011;39547;45.554;12.068;2023-03-23T01:21:49;40.90;;;25.10;;
53644;SDS011;39547;45.554;12.068;2023-03-23T01:27:50;41.90;;;26.25;;
53644;SDS011;39547;45.554;12.068;2023-03-23T01:33:52;42.15;;;27.38;;
53644;SDS011;39547;45.554;12.068;2023-03-23T01:39:56;42.57;;;26.67;;
53644;SDS011;39547;45.554;12.068;2023-03-23T01:45:58;40.30;;;25.75;;
53644;SDS011;39547;45.554;12.068;2023-03-23T01:52:04;48.97;;;29.95;;
53644;SDS011;39547;45.554;12.068;2023-03-23T01:58:21;46.40;;;28.55;;
53644;SDS011;39547;45.554;12.068;2023-03-23T02:04:28;49.72;;;29.38;;
53644;SDS011;39547;45.554;12.068;2023-03-23T02:10:32;51.05;;;30.60;;
53644;SDS011;39547;45.554;12.068;2023-03-23T02:16:51;41.13;;;26.97;;
53644;SDS011;39547;45.554;12.068;2023-03-23T02:23:20;49.72;;;30.60;;
53644;SDS011;39547;45.554;12.068;2023-03-23T02:42:29;51.35;;;31.02;;
53644;SDS011;39547;45.554;12.068;2023-03-23T02:48:34;51.10;;;31.08;;
53644;SDS011;39547;45.554;12.068;2023-03-23T02:54:39;59.53;;;35.28;;
53644;SDS011;39547;45.554;12.068;2023-03-23T03:00:43;60.10;;;35.58;;
53644;SDS011;39547;45.554;12.068;2023-03-23T03:06:54;50.38;;;31.25;;
53644;SDS011;39547;45.554;12.068;2023-03-23T03:13:04;49.95;;;31.13;;
53644;SDS011;39547;45.554;12.068;2023-03-23T03:25:23;59.87;;;35.13;;
53644;SDS011;39547;45.554;12.068;2023-03-23T03:31:31;44.00;;;27.73;;
53644;SDS011;39547;45.554;12.068;2023-03-23T03:37:36;47.88;;;29.00;;
53644;SDS011;39547;45.554;12.068;2023-03-23T03:43:39;54.22;;;31.88;;
53644;SDS011;39547;45.554;12.068;2023-03-23T03:49:41;51.47;;;30.75;;
53644;SDS011;39547;45.554;12.068;2023-03-23T03:55:43;58.00;;;35.28;;
53644;SDS011;39547;45.554;12.068;2023-03-23T04:01:50;58.40;;;36.53;;
53644;SDS011;39547;45.554;12.068;2023-03-23T04:14:05;47.92;;;30.02;;
53644;SDS011;39547;45.554;12.068;2023-03-23T04:20:16;50.08;;;31.05;;
53644;SDS011;39547;45.554;12.068;2023-03-23T04:26:28;53.90;;;32.78;;
53644;SDS011;39547;45.554;12.068;2023-03-23T04:32:34;46.63;;;28.67;;
53644;SDS011;39547;45.554;12.068;2023-03-23T04:38:36;47.88;;;29.45;;
53644;SDS011;39547;45.554;12.068;2023-03-23T04:44:46;50.53;;;30.35;;
53644;SDS011;39547;45.554;12.068;2023-03-23T04:51:06;46.33;;;28.50;;
53644;SDS011;39547;45.554;12.068;2023-03-23T04:57:08;50.03;;;30.55;;
53644;SDS011;39547;45.554;12.068;2023-03-23T05:03:13;44.08;;;26.80;;
53644;SDS011;39547;45.554;12.068;2023-03-23T05:09:17;62.53;;;37.93;;
53644;SDS011;39547;45.554;12.068;2023-03-23T05:15:21;54.47;;;33.00;;
53644;SDS011;39547;45.554;12.068;2023-03-23T05:21:24;49.05;;;30.27;;
53644;SDS011;39547;45.554;12.068;2023-03-23T05:27:29;48.97;;;30.67;;
53644;SDS011;39547;45.554;12.068;2023-03-23T05:33:35;47.20;;;29.10;;
53644;SDS011;39547;45.554;12.068;2023-03-23T05:40:06;47.22;;;30.02;;
53644;SDS011;39547;45.554;12.068;2023-03-23T05:46:16;51.92;;;30.92;;
53644;SDS011;39547;45.554;12.068;2023-03-23T05:52:20;52.50;;;31.63;;
53644;SDS011;39547;45.554;12.068;2023-03-23T05:58:22;47.47;;;29.33;;
53644;SDS011;39547;45.554;12.068;2023-03-23T06:04:25;50.58;;;30.42;;
53644;SDS011;39547;45.554;12.068;2023-03-23T06:10:49;55.30;;;32.78;;
53644;SDS011;39547;45.554;12.068;2023-03-23T06:16:53;52.50;;;30.55;;
53644;SDS011;39547;45.554;12.068;2023-03-23T06:22:55;61.50;;;35.83;;
53644;SDS011;39547;45.554;12.068;2023-03-23T06:29:05;50.03;;;30.92;;
53644;SDS011;39547;45.554;12.068;2023-03-23T06:35:13;53.85;;;33.55;;
53644;SDS011;39547;45.554;12.068;2023-03-23T06:41:15;46.42;;;28.92;;
53644;SDS011;39547;45.554;12.068;2023-03-23T06:47:17;52.80;;;32.38;;
53644;SDS011;39547;45.554;12.068;2023-03-23T06:53:22;47.95;;;29.23;;
53644;SDS011;39547;45.554;12.068;2023-03-23T06:59:25;49.03;;;31.23;;
53644;SDS011;39547;45.554;12.068;2023-03-23T07:05:27;63.63;;;37.47;;
53644;SDS011;39547;45.554;12.068;2023-03-23T07:11:29;56.65;;;33.80;;
53644;SDS011;39547;45.554;12.068;2023-03-23T07:17:36;57.08;;;33.25;;
53644;SDS011;39547;45.554;12.068;2023-03-23T07:23:46;56.63;;;34.05;;
53644;SDS011;39547;45.554;12.068;2023-03-23T07:29:55;47.92;;;29.63;;
53644;SDS011;39547;45.554;12.068;2023-03-23T07:36:00;44.35;;;27.48;;
53644;SDS011;39547;45.554;12.068;2023-03-23T07:42:03;44.45;;;27.80;;
53644;SDS011;39547;45.554;12.068;2023-03-23T07:48:31;49.08;;;29.88;;
53644;SDS011;39547;45.554;12.068;2023-03-23T07:54:33;40.63;;;25.17;;
53644;SDS011;39547;45.554;12.068;2023-03-23T08:01:13;41.90;;;25.35;;
53644;SDS011;39547;45.554;12.068;2023-03-23T08:07:19;43.10;;;27.17;;
53644;SDS011;39547;45.554;12.068;2023-03-23T08:13:27;48.70;;;30.23;;
53644;SDS011;39547;45.554;12.068;2023-03-23T08:19:49;37.60;;;23.50;;
53644;SDS011;39547;45.554;12.068;2023-03-23T08:25:53;42.90;;;26.80;;
53644;SDS011;39547;45.554;12.068;2023-03-23T08:32:19;46.53;;;28.35;;
53644;SDS011;39547;45.554;12.068;2023-03-23T08:38:38;38.80;;;25.33;;
53644;SDS011;39547;45.554;12.068;2023-03-23T08:45:02;41.45;;;25.13;;
53644;SDS011;39547;45.554;12.068;2023-03-23T08:51:24;43.00;;;26.70;;
53644;SDS011;39547;45.554;12.068;2023-03-23T08:57:44;36.08;;;23.02;;
53644;SDS011;39547;45.554;12.068;2023-03-23T09:03:58;32.05;;;18.92;;
53644;SDS011;39547;45.554;12.068;2023-03-23T09:10:18;29.52;;;18.27;;
53644;SDS011;39547;45.554;12.068;2023-03-23T09:16:20;30.90;;;17.17;;
53644;SDS011;39547;45.554;12.068;2023-03-23T09:22:22;30.27;;;18.23;;
53644;SDS011;39547;45.554;12.068;2023-03-23T09:28:24;26.88;;;16.15;;
53644;SDS011;39547;45.554;12.068;2023-03-23T09:34:26;42.55;;;26.05;;
53644;SDS011;39547;45.554;12.068;2023-03-23T09:40:39;34.57;;;20.37;;
53644;SDS011;39547;45.554;12.068;2023-03-23T09:46:54;37.75;;;23.42;;
53644;SDS011;39547;45.554;12.068;2023-03-23T09:53:45;44.22;;;27.58;;
53644;SDS011;39547;45.554;12.068;2023-03-23T10:06:17;30.40;;;18.13;;
53644;SDS011;39547;45.554;12.068;2023-03-23T10:12:28;24.40;;;14.40;;
53644;SDS011;39547;45.554;12.068;2023-03-23T10:18:36;23.42;;;14.25;;
53644;SDS011;39547;45.554;12.068;2023-03-23T10:24:51;23.85;;;14.20;;
53644;SDS011;39547;45.554;12.068;2023-03-23T10:31:46;24.05;;;14.80;;
53644;SDS011;39547;45.554;12.068;2023-03-23T10:37:44;24.73;;;14.18;;
53644;SDS011;39547;45.554;12.068;2023-03-23T10:43:50;31.85;;;19.35;;
53644;SDS011;39547;45.554;12.068;2023-03-23T10:50:01;30.80;;;19.00;;
53644;SDS011;39547;45.554;12.068;2023-03-23T10:56:18;24.70;;;15.00;;
53644;SDS011;39547;45.554;12.068;2023-03-23T11:02:24;36.05;;;21.85;;
53644;SDS011;39547;45.554;12.068;2023-03-23T11:08:28;28.70;;;17.58;;
53644;SDS011;39547;45.554;12.068;2023-03-23T11:14:33;37.22;;;22.98;;
53644;SDS011;39547;45.554;12.068;2023-03-23T11:20:40;30.77;;;19.52;;
53644;SDS011;39547;45.554;12.068;2023-03-23T11:26:44;27.45;;;16.70;;
53644;SDS011;39547;45.554;12.068;2023-03-23T11:32:48;34.43;;;22.53;;
53644;SDS011;39547;45.554;12.068;2023-03-23T11:38:53;32.90;;;20.65;;
53644;SDS011;39547;45.554;12.068;2023-03-23T11:45:07;36.28;;;22.23;;
53644;SDS011;39547;45.554;12.068;2023-03-23T11:51:44;34.38;;;22.25;;
53644;SDS011;39547;45.554;12.068;2023-03-23T11:57:49;23.27;;;13.95;;
53644;SDS011;39547;45.554;12.068;2023-03-23T12:03:54;29.98;;;19.40;;
53644;SDS011;39547;45.554;12.068;2023-03-23T12:10:18;30.83;;;19.08;;
53644;SDS011;39547;45.554;12.068;2023-03-23T12:35:45;18.00;;;9.20;;
53644;SDS011;39547;45.554;12.068;2023-03-23T12:41:54;25.85;;;13.73;;
53644;SDS011;39547;45.554;12.068;2023-03-23T12:48:05;24.17;;;14.05;;
53644;SDS011;39547;45.554;12.068;2023-03-23T12:54:32;26.45;;;14.85;;
53644;SDS011;39547;45.554;12.068;2023-03-23T13:01:06;20.83;;;11.55;;
53644;SDS011;39547;45.554;12.068;2023-03-23T13:07:18;20.45;;;10.88;;
53644;SDS011;39547;45.554;12.068;2023-03-23T13:13:41;26.20;;;16.35;;
53644;SDS011;39547;45.554;12.068;2023-03-23T13:26:20;26.37;;;16.87;;
53644;SDS011;39547;45.554;12.068;2023-03-23T13:32:44;20.92;;;11.77;;
53644;SDS011;39547;45.554;12.068;2023-03-23T13:38:47;29.50;;;18.95;;
53644;SDS011;39547;45.554;12.068;2023-03-23T13:57:01;17.85;;;9.30;;
53644;SDS011;39547;45.554;12.068;2023-03-23T14:03:18;22.33;;;14.07;;
53644;SDS011;39547;45.554;12.068;2023-03-23T14:09:37;19.83;;;10.50;;
53644;SDS011;39547;45.554;12.068;2023-03-23T14:15:42;21.45;;;13.02;;
53644;SDS011;39547;45.554;12.068;2023-03-23T14:28:03;20.08;;;11.75;;
53644;SDS011;39547;45.554;12.068;2023-03-23T14:34:10;20.27;;;10.65;;
53644;SDS011;39547;45.554;12.068;2023-03-23T14:40:18;19.92;;;11.48;;
53644;SDS011;39547;45.554;12.068;2023-03-23T14:46:20;21.83;;;12.07;;
53644;SDS011;39547;45.554;12.068;2023-03-23T14:52:23;20.88;;;11.02;;
53644;SDS011;39547;45.554;12.068;2023-03-23T14:58:27;23.38;;;12.65;;
53644;SDS011;39547;45.554;12.068;2023-03-23T15:04:29;19.77;;;11.18;;
53644;SDS011;39547;45.554;12.068;2023-03-23T15:10:30;22.20;;;12.68;;
53644;SDS011;39547;45.554;12.068;2023-03-23T15:16:32;23.83;;;14.02;;
53644;SDS011;39547;45.554;12.068;2023-03-23T15:22:35;24.40;;;14.80;;
53644;SDS011;39547;45.554;12.068;2023-03-23T15:28:39;22.23;;;11.77;;
53644;SDS011;39547;45.554;12.068;2023-03-23T15:34:41;23.13;;;13.43;;
53644;SDS011;39547;45.554;12.068;2023-03-23T15:40:48;21.77;;;13.43;;
53644;SDS011;39547;45.554;12.068;2023-03-23T15:46:52;23.20;;;12.30;;
53644;SDS011;39547;45.554;12.068;2023-03-23T15:59:40;26.30;;;13.38;;
53644;SDS011;39547;45.554;12.068;2023-03-23T16:05:41;24.38;;;15.57;;
53644;SDS011;39547;45.554;12.068;2023-03-23T16:11:43;21.60;;;13.43;;
53644;SDS011;39547;45.554;12.068;2023-03-23T16:17:45;22.95;;;13.27;;
53644;SDS011;39547;45.554;12.068;2023-03-23T16:23:47;21.52;;;12.10;;
53644;SDS011;39547;45.554;12.068;2023-03-23T16:29:48;22.70;;;12.52;;
53644;SDS011;39547;45.554;12.068;2023-03-23T16:35:50;24.48;;;13.77;;
53644;SDS011;39547;45.554;12.068;2023-03-23T16:41:51;22.95;;;12.70;;
53644;SDS011;39547;45.554;12.068;2023-03-23T16:47:53;26.75;;;14.85;;
53644;SDS011;39547;45.554;12.068;2023-03-23T16:53:56;28.45;;;16.08;;
53644;SDS011;39547;45.554;12.068;2023-03-23T16:59:58;28.40;;;16.90;;
53644;SDS011;39547;45.554;12.068;2023-03-23T17:06:00;26.65;;;14.02;;
53644;SDS011;39547;45.554;12.068;2023-03-23T17:12:02;33.85;;;19.40;;
53644;SDS011;39547;45.554;12.068;2023-03-23T17:18:04;28.80;;;16.52;;
53644;SDS011;39547;45.554;12.068;2023-03-23T17:24:06;28.67;;;16.23;;
53644;SDS011;39547;45.554;12.068;2023-03-23T17:30:08;27.30;;;15.93;;
53644;SDS011;39547;45.554;12.068;2023-03-23T17:36:10;26.85;;;15.80;;
53644;SDS011;39547;45.554;12.068;2023-03-23T17:42:12;28.58;;;16.67;;
53644;SDS011;39547;45.554;12.068;2023-03-23T17:48:13;34.72;;;19.70;;
53644;SDS011;39547;45.554;12.068;2023-03-23T17:54:15;29.70;;;17.70;;
53644;SDS011;39547;45.554;12.068;2023-03-23T18:00:16;29.45;;;16.63;;
53644;SDS011;39547;45.554;12.068;2023-03-23T18:06:19;33.90;;;20.02;;
53644;SDS011;39547;45.554;12.068;2023-03-23T18:12:20;35.53;;;20.20;;
53644;SDS011;39547;45.554;12.068;2023-03-23T18:18:22;34.72;;;20.05;;
53644;SDS011;39547;45.554;12.068;2023-03-23T18:24:25;30.83;;;18.02;;
53644;SDS011;39547;45.554;12.068;2023-03-23T18:30:26;33.63;;;19.17;;
53644;SDS011;39547;45.554;12.068;2023-03-23T18:36:28;31.30;;;18.73;;
53644;SDS011;39547;45.554;12.068;2023-03-23T18:42:29;28.95;;;17.05;;
53644;SDS011;39547;45.554;12.068;2023-03-23T18:48:31;37.42;;;22.38;;
53644;SDS011;39547;45.554;12.068;2023-03-23T18:54:33;34.08;;;21.45;;
53644;SDS011;39547;45.554;12.068;2023-03-23T19:00:37;44.03;;;25.63;;
53644;SDS011;39547;45.554;12.068;2023-03-23T19:06:39;33.47;;;21.85;;
53644;SDS011;39547;45.554;12.068;2023-03-23T19:12:41;37.40;;;21.90;;
53644;SDS011;39547;45.554;12.068;2023-03-23T19:18:42;30.73;;;19.42;;
53644;SDS011;39547;45.554;12.068;2023-03-23T19:24:44;38.88;;;23.92;;
53644;SDS011;39547;45.554;12.068;2023-03-23T19:30:47;47.83;;;29.20;;
53644;SDS011;39547;45.554;12.068;2023-03-23T19:36:50;38.65;;;23.95;;
53644;SDS011;39547;45.554;12.068;2023-03-23T19:42:52;35.60;;;22.70;;
53644;SDS011;39547;45.554;12.068;2023-03-23T19:48:53;45.35;;;27.85;;
53644;SDS011;39547;45.554;12.068;2023-03-23T19:54:56;34.60;;;21.75;;
53644;SDS011;39547;45.554;12.068;2023-03-23T20:00:59;35.67;;;23.20;;
53644;SDS011;39547;45.554;12.068;2023-03-23T20:07:00;55.00;;;34.33;;
53644;SDS011;39547;45.554;12.068;2023-03-23T20:13:04;49.13;;;31.33;;
53644;SDS011;39547;45.554;12.068;2023-03-23T20:19:06;60.95;;;39.15;;
53644;SDS011;39547;45.554;12.068;2023-03-23T20:25:08;55.80;;;34.50;;
53644;SDS011;39547;45.554;12.068;2023-03-23T20:31:11;50.55;;;31.25;;
53644;SDS011;39547;45.554;12.068;2023-03-23T20:37:13;63.92;;;39.70;;
53644;SDS011;39547;45.554;12.068;2023-03-23T20:43:17;59.53;;;37.35;;
53644;SDS011;39547;45.554;12.068;2023-03-23T20:49:19;51.30;;;31.70;;
53644;SDS011;39547;45.554;12.068;2023-03-23T20:55:21;49.38;;;30.73;;
53644;SDS011;39547;45.554;12.068;2023-03-23T21:01:23;48.47;;;30.73;;
53644;SDS011;39547;45.554;12.068;2023-03-23T21:07:25;50.65;;;32.22;;
53644;SDS011;39547;45.554;12.068;2023-03-23T21:13:27;91.57;;;49.42;;
53644;SDS011;39547;45.554;12.068;2023-03-23T21:19:28;61.50;;;37.45;;
53644;SDS011;39547;45.554;12.068;2023-03-23T21:25:30;87.82;;;46.60;;
53644;SDS011;39547;45.554;12.068;2023-03-23T21:31:34;69.57;;;41.57;;
53644;SDS011;39547;45.554;12.068;2023-03-23T21:37:37;66.13;;;39.65;;
53644;SDS011;39547;45.554;12.068;2023-03-23T21:43:38;73.07;;;42.10;;
53644;SDS011;39547;45.554;12.068;2023-03-23T21:49:40;87.30;;;47.38;;
53644;SDS011;39547;45.554;12.068;2023-03-23T21:55:49;78.03;;;44.70;;
53644;SDS011;39547;45.554;12.068;2023-03-23T22:01:51;63.05;;;37.95;;
53644;SDS011;39547;45.554;12.068;2023-03-23T22:07:53;60.20;;;36.13;;
53644;SDS011;39547;45.554;12.068;2023-03-23T22:13:55;52.10;;;32.05;;
53644;SDS011;39547;45.554;12.068;2023-03-23T22:19:57;56.90;;;34.60;;
53644;SDS011;39547;45.554;12.068;2023-03-23T22:25:59;53.58;;;33.63;;
53644;SDS011;39547;45.554;12.068;2023-03-23T22:32:00;53.17;;;33.05;;
53644;SDS011;39547;45.554;12.068;2023-03-23T22:38:02;56.08;;;33.50;;
53644;SDS011;39547;45.554;12.068;2023-03-23T22:44:04;48.13;;;29.60;;
53644;SDS011;39547;45.554;12.068;2023-03-23T22:56:10;56.55;;;33.03;;
53644;SDS011;39547;45.554;12.068;2023-03-23T23:02:12;55.97;;;33.28;;
53644;SDS011;39547;45.554;12.068;2023-03-23T23:08:13;64.25;;;37.97;;
53644;SDS011;39547;45.554;12.068;2023-03-23T23:14:15;64.05;;;37.00;;
53644;SDS011;39547;45.554;12.068;2023-03-23T23:20:17;61.63;;;37.08;;
53644;SDS011;39547;45.554;12.068;2023-03-23T23:26:18;54.15;;;33.67;;
53644;SDS011;39547;45.554;12.068;2023-03-23T23:32:20;52.35;;;32.55;;
53644;SDS011;39547;45.554;12.068;2023-03-23T23:38:22;63.33;;;37.42;;
53644;SDS011;39547;45.554;12.068;2023-03-23T23:44:23;58.88;;;34.90;;
53644;SDS011;39547;45.554;12.068;2023-03-23T23:50:25;57.55;;;33.85;;
53644;SDS011;39547;45.554;12.068;2023-03-23T23:56:27;72.47;;;40.17;;
